Time;durP1;ratioP1;P1;durP2;ratioP2;P2;SDS_P1;SDS_P2;PMS_P1;PMS_P2;Temp;Humidity;BMP_temperature;BMP_pressure;BME280_temperature;BME280_humidity;BME280_pressure;Samples;Min_cycle;Max_cycle;Signal;HPM_P1;HPM_P2
2022/04/23 15:28:48;;;;;;;;;;;;;;;17.63;52.15;99739.19;5126390;27;20119;-52
2022/04/23 15:31:14;;;;;;;6.22;2.15;;;;;;;18.12;54.49;99731.69;5130106;27;19907;-55
2022/04/23 15:35:00;;;;;;;;;;;;;;;20.22;49.08;99724.63;5164521;27;20645;-57
2022/04/23 15:37:26;;;;;;;5.20;2.13;;;;;;;19.48;47.20;99736.13;5146422;27;21308;-53
2022/04/23 15:39:52;;;;;;;6.25;2.10;;;;;;;17.94;50.90;99735.81;5138823;27;20112;-53
2022/04/23 15:42:18;;;;;;;5.55;1.98;;;;;;;17.43;52.40;99732.84;5118885;27;20102;-52
2022/04/23 15:44:43;;;;;;;6.68;1.98;;;;;;;17.30;52.91;99738.19;5132428;27;20023;-53
2022/04/23 15:47:09;;;;;;;4.75;2.40;;;;;;;17.20;53.33;99735.94;5141968;27;20417;-53
2022/04/23 15:49:35;;;;;;;7.97;2.35;;;;;;;17.20;53.19;99736.75;5133350;27;20032;-53
2022/04/23 15:52:01;;;;;;;4.18;2.40;;;;;;;17.19;53.19;99732.44;5139691;27;20026;-52
2022/04/23 15:54:28;;;;;;;6.80;2.42;;;;;;;17.22;53.00;99737.38;5145729;27;20067;-53
2022/04/23 15:56:57;;;;;;;5.15;2.58;;;;;;;17.21;52.98;99745.59;5143934;27;20110;-53
2022/04/23 15:59:23;;;;;;;4.78;2.13;;;;;;;17.19;53.09;99740.47;5143284;27;20035;-51
2022/04/23 16:01:48;;;;;;;4.60;2.35;;;;;;;17.20;53.06;99749.31;5130592;27;20028;-53
2022/04/23 16:04:14;;;;;;;8.25;2.58;;;;;;;17.20;52.82;99754.66;5148647;27;20098;-53
2022/04/23 16:06:40;;;;;;;6.10;2.38;;;;;;;17.25;52.84;99768.19;5146437;27;20027;-53
2022/04/23 16:09:06;;;;;;;7.22;2.97;;;;;;;17.28;52.73;99765.09;5147622;27;20022;-51
2022/04/23 16:11:31;;;;;;;3.97;2.50;;;;;;;17.26;52.74;99761.84;5147157;27;20023;-50
2022/04/23 16:13:57;;;;;;;3.53;2.47;;;;;;;17.28;52.88;99758.97;5118391;28;20042;-50
2022/04/23 16:16:23;;;;;;;5.10;2.50;;;;;;;17.20;52.81;99757.31;5131353;27;20073;-54
2022/04/23 16:18:49;;;;;;;10.30;2.45;;;;;;;17.31;53.36;99761.22;5144292;27;20150;-52
2022/04/23 16:21:15;;;;;;;4.22;2.10;;;;;;;17.43;52.42;99762.22;5133797;27;20027;-52
2022/04/23 16:23:41;;;;;;;4.75;2.25;;;;;;;17.41;52.47;99766.94;5146549;27;20031;-52
2022/04/23 16:26:06;;;;;;;5.38;2.15;;;;;;;17.33;52.45;99767.16;5147305;27;20051;-50
2022/04/23 16:28:32;;;;;;;5.25;2.50;;;;;;;17.33;52.31;99772.50;5146313;27;20352;-50
2022/04/23 16:30:58;;;;;;;6.75;2.63;;;;;;;17.39;52.29;99765.53;5107151;27;20611;-51
2022/04/23 16:33:25;;;;;;;5.55;2.63;;;;;;;17.37;52.37;99760.38;5099466;28;20067;-52
2022/04/23 16:46:48;;;;;;;6.38;2.60;;;;;;;17.16;53.24;99780.09;5084163;28;20103;-54
2022/04/23 16:49:14;;;;;;;18.88;2.92;;;;;;;17.28;53.03;99766.97;5073276;28;20111;-51
2022/04/23 16:51:40;;;;;;;9.25;3.42;;;;;;;17.28;52.91;99769.63;5075602;28;20055;-51
2022/04/23 16:54:06;;;;;;;6.55;2.65;;;;;;;17.28;53.05;99762.44;5080363;28;20032;-51
2022/04/23 16:56:35;;;;;;;6.38;2.35;;;;;;;17.30;53.01;99772.91;5077041;28;20043;-51
2022/04/23 16:59:01;;;;;;;6.97;2.83;;;;;;;17.31;52.90;99775.38;5081788;28;20425;-51
2022/04/23 17:01:26;;;;;;;4.60;2.10;;;;;;;17.30;52.89;99778.25;5084812;28;20032;-52
2022/04/23 17:03:52;;;;;;;6.57;2.10;;;;;;;17.31;53.09;99779.91;5074134;28;20028;-52
2022/04/23 17:06:18;;;;;;;5.05;2.10;;;;;;;17.32;53.00;99786.88;5074096;28;20495;-52
2022/04/23 17:08:45;;;;;;;9.23;2.47;;;;;;;17.30;52.80;99783.59;5088245;28;20031;-53
2022/04/23 17:11:11;;;;;;;3.05;2.15;;;;;;;17.32;53.07;99786.88;5091886;28;20024;-53
2022/04/23 17:13:37;;;;;;;6.78;2.30;;;;;;;17.32;53.08;99782.38;5091709;28;20047;-53
2022/04/23 17:16:03;;;;;;;3.35;1.90;;;;;;;17.34;52.86;99774.97;5091507;28;20024;-52
2022/04/23 17:18:28;;;;;;;5.53;2.22;;;;;;;17.34;52.95;99766.94;5091497;28;20028;-52
2022/04/23 17:20:54;;;;;;;7.97;2.63;;;;;;;17.34;53.30;99766.94;5088689;28;20177;-54
2022/04/23 17:23:22;;;;;;;7.30;2.63;;;;;;;17.34;52.84;99772.28;5073882;28;20036;-53
2022/04/23 17:25:48;;;;;;;5.68;2.70;;;;;;;17.29;53.09;99768.59;5076672;28;20392;-53
2022/04/23 17:28:13;;;;;;;4.93;2.28;;;;;;;17.28;53.15;99783.00;5091461;28;20032;-54
2022/04/23 17:30:39;;;;;;;5.97;2.53;;;;;;;17.23;53.18;99783.59;5090566;28;20036;-53
2022/04/23 17:33:05;;;;;;;4.30;2.17;;;;;;;17.22;53.45;99772.09;5090074;28;20731;-54
2022/04/23 17:35:31;;;;;;;9.32;2.72;;;;;;;17.22;53.34;99780.09;5090959;28;20024;-53
2022/04/23 17:40:42;;;;;;;4.63;2.33;;;;;;;20.93;44.03;99776.94;5088037;28;20032;-53
2022/04/23 17:43:08;;;;;;;5.72;2.72;;;;;;;21.65;41.89;99767.06;5090437;28;20024;-54
2022/04/23 17:45:34;;;;;;;5.45;2.40;;;;;;;21.86;41.24;99770.22;5091921;28;20024;-53
2022/04/23 17:48:00;;;;;;;6.40;2.15;;;;;;;22.00;40.88;99765.41;5091535;28;20032;-54
2022/04/23 17:50:25;;;;;;;5.82;2.50;;;;;;;22.06;40.63;99779.78;5090756;28;20024;-54
2022/04/23 17:52:51;;;;;;;2.83;2.08;;;;;;;21.96;40.95;99774.19;5090983;28;20089;-53
2022/04/23 17:55:17;;;;;;;4.90;2.30;;;;;;;21.62;41.29;99782.84;5058304;28;20032;-54
2022/04/23 17:57:43;;;;;;;6.95;3.40;;;;;;;20.63;44.02;99783.09;5079221;28;20496;-52
2022/04/23 18:08:36;;;;;;;9.10;2.17;;;;;;;18.31;49.67;99774.59;5091801;28;20111;-52
2022/04/23 18:11:02;;;;;;;3.55;2.47;;;;;;;18.09;50.29;99774.84;5074581;28;20036;-52
2022/04/23 18:13:28;;;;;;;5.32;2.20;;;;;;;17.90;50.97;99773.88;5084552;28;20442;-52
2022/04/23 18:15:56;;;;;;;6.07;2.35;;;;;;;17.81;51.38;99773.25;5073666;28;20044;-51
2022/04/23 18:18:22;;;;;;;4.72;2.33;;;;;;;17.72;51.78;99781.53;5073556;28;20032;-52
2022/04/23 18:20:48;;;;;;;4.07;2.53;;;;;;;17.67;51.99;99775.16;5074486;28;20054;-52
2022/04/23 18:23:14;;;;;;;5.40;2.60;;;;;;;17.64;52.07;99780.91;5073661;28;20021;-51
2022/04/23 18:25:40;;;;;;;6.93;2.55;;;;;;;17.63;52.19;99776.59;5062365;28;20039;-46
2022/04/23 18:28:06;;;;;;;5.65;2.40;;;;;;;17.59;52.33;99765.50;5073003;28;20032;-54
2022/04/23 18:30:31;;;;;;;14.95;2.72;;;;;;;17.52;52.01;99772.72;5073098;28;20099;-54
2022/04/23 18:32:58;;;;;;;4.85;2.80;;;;;;;17.48;51.80;99775.81;5072766;28;20680;-54
2022/04/23 18:35:24;;;;;;;7.47;2.88;;;;;;;17.45;51.59;99773.53;5068987;28;20490;-55
2022/04/23 18:37:50;;;;;;;3.33;2.08;;;;;;;17.41;52.03;99777.63;5072387;28;20031;-55
2022/04/23 18:40:16;;;;;;;4.05;2.50;;;;;;;17.39;52.19;99777.00;5073061;28;20406;-55
2022/04/23 18:42:43;;;;;;;4.95;2.88;;;;;;;17.38;52.26;99782.56;5072740;28;20025;-54
2022/04/23 18:45:09;;;;;;;4.43;2.45;;;;;;;17.33;52.38;99781.34;5074362;28;20475;-55
2022/04/23 18:47:36;;;;;;;3.20;2.80;;;;;;;17.33;52.41;99781.34;5072980;28;20050;-54
2022/04/23 18:50:06;;;;;;;9.25;2.88;;;;;;;17.27;52.61;99789.34;5071532;28;20464;-55
2022/04/23 18:52:31;;;;;;;4.70;2.55;;;;;;;17.25;52.69;99784.22;5072908;28;20081;-54
2022/04/23 18:54:57;;;;;;;5.30;2.55;;;;;;;17.24;52.76;99790.59;5073587;28;20028;-55
2022/04/23 18:57:23;;;;;;;3.45;2.45;;;;;;;17.22;52.67;99787.28;5073362;28;20020;-54
2022/04/23 18:59:49;;;;;;;7.40;2.70;;;;;;;17.20;52.75;99787.50;5080308;28;20027;-54
2022/04/23 19:02:19;;;;;;;4.68;2.55;;;;;;;17.17;53.09;99790.56;5090201;28;20035;-54
2022/04/23 19:04:44;;;;;;;4.55;2.45;;;;;;;17.15;53.16;99792.66;5089790;28;20444;-54
2022/04/23 19:07:10;;;;;;;4.28;2.75;;;;;;;17.13;53.07;99792.03;5088775;28;20059;-54
2022/04/23 19:09:36;;;;;;;5.47;2.80;;;;;;;17.12;53.18;99790.34;5089299;28;20498;-54
2022/04/23 19:12:02;;;;;;;3.65;2.78;;;;;;;17.10;53.13;99790.56;5086263;28;20032;-54
2022/04/23 19:14:27;;;;;;;3.25;2.45;;;;;;;17.07;53.11;99796.28;5082967;28;20024;-54
2022/04/23 19:16:53;;;;;;;2.65;2.45;;;;;;;17.07;53.15;99795.47;5060336;28;20377;-54
2022/04/23 19:19:19;;;;;;;5.57;3.20;;;;;;;17.04;53.66;99791.34;5071648;28;20472;-54
2022/04/23 19:27:29;;;;;;;3.72;2.58;;;;;;;17.01;53.34;99804.31;5073175;28;20032;-54
2022/04/23 19:29:55;;;;;;;4.03;2.75;;;;;;;17.01;53.16;99804.31;5080093;28;20028;-54
2022/04/23 19:32:21;;;;;;;4.72;2.70;;;;;;;16.98;53.41;99810.84;5082837;28;20107;-54
2022/04/23 19:34:48;;;;;;;4.10;2.60;;;;;;;16.99;53.43;99809.84;5073956;28;20032;-54
2022/04/23 19:37:14;;;;;;;4.28;2.80;;;;;;;17.00;53.49;99808.81;5073371;28;20028;-54
2022/04/23 19:39:41;;;;;;;4.10;2.58;;;;;;;16.98;53.42;99816.19;5076877;28;20056;-54
2022/04/23 19:42:08;;;;;;;6.35;2.50;;;;;;;16.98;53.22;99817.03;5074626;28;20029;-54
2022/04/23 19:44:34;;;;;;;6.07;2.75;;;;;;;16.99;53.23;99820.53;5081680;28;20133;-55
2022/04/23 19:47:00;;;;;;;7.80;2.60;;;;;;;16.98;53.45;99825.03;5071717;28;20036;-55
2022/04/23 19:49:26;;;;;;;3.65;2.33;;;;;;;16.97;53.67;99833.25;5088647;28;20072;-54
2022/04/23 19:51:59;;;;;;;16.77;2.88;;;;;;;16.95;53.46;99840.63;5082319;28;20032;-54
2022/04/23 19:54:25;;;;;;;8.82;2.75;;;;;;;16.93;54.18;99842.69;5070168;28;20029;-54
2022/04/23 19:56:51;;;;;;;7.85;2.47;;;;;;;16.91;53.88;99842.88;5071193;28;20242;-54
2022/04/23 19:59:17;;;;;;;4.05;2.60;;;;;;;16.91;54.05;99850.91;5086834;28;20111;-54
2022/04/23 20:01:43;;;;;;;9.75;2.65;;;;;;;16.88;53.95;99843.28;5089072;28;20028;-54
2022/04/23 20:04:09;;;;;;;6.72;2.47;;;;;;;16.86;53.98;99850.66;5088696;28;20092;-56
2022/04/23 20:06:35;;;;;;;5.80;2.40;;;;;;;16.82;54.11;99850.22;5089489;28;20061;-54
2022/04/23 20:09:02;;;;;;;4.07;2.75;;;;;;;16.81;53.87;99856.59;5087536;28;20028;-54
2022/04/23 20:11:28;;;;;;;5.15;2.60;;;;;;;16.80;54.10;99844.25;5020187;28;20032;-55
2022/04/23 20:13:54;;;;;;;4.95;2.90;;;;;;;16.79;54.00;99855.97;5060373;28;20040;-54
2022/04/23 20:16:19;;;;;;;7.55;2.70;;;;;;;16.78;54.08;99858.84;5078978;28;20032;-54
2022/04/23 20:18:45;;;;;;;3.25;2.42;;;;;;;16.74;54.10;99861.91;5071563;28;20074;-54
2022/04/23 20:21:12;;;;;;;3.83;2.53;;;;;;;16.74;53.93;99863.75;5057299;28;20476;-54
2022/04/23 20:23:38;;;;;;;3.63;2.50;;;;;;;16.71;54.10;99867.66;5093194;28;20016;-53
2022/04/23 20:26:04;;;;;;;4.60;2.60;;;;;;;16.71;54.09;99874.81;5075783;28;20606;-54
2022/04/23 20:31:16;;;;;;;9.82;2.70;;;;;;;16.70;54.06;99876.69;5077804;28;20028;-54
2022/04/23 20:33:41;;;;;;;4.43;2.63;;;;;;;16.70;54.00;99875.84;5075998;28;20040;-54
2022/04/23 20:38:51;;;;;;;4.45;2.13;;;;;;;16.74;54.43;99893.09;5075328;28;20028;-53
2022/04/23 20:41:17;;;;;;;6.20;2.47;;;;;;;16.72;54.82;99889.84;5073555;28;20028;-54
2022/04/23 20:43:43;;;;;;;4.40;2.30;;;;;;;16.69;54.90;99896.38;5071107;28;20025;-54
2022/04/23 20:46:09;;;;;;;2.78;1.92;;;;;;;16.68;54.67;99897.41;5071570;28;20036;-54
2022/04/23 20:48:35;;;;;;;4.20;2.10;;;;;;;16.67;54.68;99902.94;5071658;28;20040;-53
2022/04/23 20:51:00;;;;;;;4.93;1.98;;;;;;;16.67;54.42;99897.59;5070720;28;20039;-54
2022/04/23 20:53:26;;;;;;;5.93;2.25;;;;;;;16.65;54.63;99903.13;5072419;28;20040;-54
2022/04/23 20:55:59;;;;;;;3.88;2.65;;;;;;;16.66;54.71;99901.31;5069649;28;20032;-53
2022/04/23 20:58:25;;;;;;;3.17;2.03;;;;;;;16.64;54.47;99904.16;5071976;28;20075;-53
2022/04/23 21:00:52;;;;;;;5.43;2.35;;;;;;;16.63;54.54;99899.84;5072105;28;20417;-54
2022/04/23 21:03:20;;;;;;;7.32;2.25;;;;;;;16.77;55.61;99907.91;5069596;28;21230;-53
2022/04/23 21:05:47;;;;;;;4.05;2.17;;;;;;;16.79;54.81;99904.00;5063030;28;20472;-53
2022/04/23 21:08:13;;;;;;;7.85;2.25;;;;;;;16.83;55.61;99912.44;5070310;28;20036;-54
2022/04/23 21:10:40;;;;;;;6.28;2.80;;;;;;;16.85;56.03;99911.22;5067526;28;20089;-53
2022/04/23 21:13:06;;;;;;;4.45;2.70;;;;;;;16.86;56.48;99917.41;5070379;28;20138;-54
2022/04/23 21:15:33;;;;;;;6.80;2.30;;;;;;;16.86;56.55;99915.56;5069702;28;20032;-54
2022/04/23 21:17:59;;;;;;;7.70;2.33;;;;;;;16.89;56.44;99922.34;5067924;28;20107;-52
2022/04/23 21:20:26;;;;;;;9.15;2.95;;;;;;;16.89;56.72;99914.31;5074356;28;20127;-54
